Map

Track Data

SID SEASON NUMBER BASIN SUBBASIN NAME ISO_TIME NATURE LAT LON WMO_WIND WMO_PRES WMO_AGENCY TRACK_TYPE DIST2LAND LANDFALL IFLAG USA_AGENCY USA_ATCF_ID USA_LAT USA_LON USA_RECORD USA_STATUS USA_WIND USA_PRES USA_SSHS USA_R34_NE USA_R34_SE USA_R34_SW USA_R34_NW USA_R50_NE USA_R50_SE USA_R50_SW USA_R50_NW USA_R64_NE USA_R64_SE USA_R64_SW USA_R64_NW USA_POCI USA_ROCI USA_RMW USA_EYE TOKYO_LAT TOKYO_LON TOKYO_GRADE TOKYO_WIND TOKYO_PRES TOKYO_R50_DIR TOKYO_R50_LONG TOKYO_R50_SHORT TOKYO_R30_DIR TOKYO_R30_LONG TOKYO_R30_SHORT TOKYO_LAND CMA_LAT CMA_LON CMA_CAT CMA_WIND CMA_PRES HKO_LAT HKO_LON HKO_CAT HKO_WIND HKO_PRES NEWDELHI_LAT NEWDELHI_LON NEWDELHI_GRADE NEWDELHI_WIND NEWDELHI_PRES NEWDELHI_CI NEWDELHI_DP NEWDELHI_POCI REUNION_LAT REUNION_LON REUNION_TYPE REUNION_WIND REUNION_PRES REUNION_TNUM REUNION_CI REUNION_RMW REUNION_R34_NE REUNION_R34_SE REUNION_R34_SW REUNION_R34_NW REUNION_R50_NE REUNION_R50_SE REUNION_R50_SW REUNION_R50_NW REUNION_R64_NE REUNION_R64_SE REUNION_R64_SW REUNION_R64_NW BOM_LAT BOM_LON BOM_TYPE BOM_WIND BOM_PRES BOM_TNUM BOM_CI BOM_RMW BOM_R34_NE BOM_R34_SE BOM_R34_SW BOM_R34_NW BOM_R50_NE BOM_R50_SE BOM_R50_SW BOM_R50_NW BOM_R64_NE BOM_R64_SE BOM_R64_SW BOM_R64_NW BOM_ROCI BOM_POCI BOM_EYE BOM_POS_METHOD BOM_PRES_METHOD NADI_LAT NADI_LON NADI_CAT NADI_WIND NADI_PRES WELLINGTON_LAT WELLINGTON_LON WELLINGTON_WIND WELLINGTON_PRES DS824_LAT DS824_LON DS824_STAGE DS824_WIND DS824_PRES TD9636_LAT TD9636_LON TD9636_STAGE TD9636_WIND TD9636_PRES TD9635_LAT TD9635_LON TD9635_WIND TD9635_PRES TD9635_ROCI NEUMANN_LAT NEUMANN_LON NEUMANN_CLASS NEUMANN_WIND NEUMANN_PRES MLC_LAT MLC_LON MLC_CLASS MLC_WIND MLC_PRES USA_GUST BOM_GUST BOM_GUST_PER REUNION_GUST REUNION_GUST_PER USA_SEAHGT USA_SEARAD_NE USA_SEARAD_SE USA_SEARAD_SW USA_SEARAD_NW STORM_SPEED STORM_DIR
1956351S10133 1957 118 SI WA NOT_NAMED 1956-12-16 11:00:00 NR -10.0000 133.300 main 162 114 __________O___ -1 -10.0000 133.300 1 34 172
1956351S10133 1957 118 SI WA NOT_NAMED 1956-12-16 12:00:00 TS -10.5530 133.385 main 104 0 O________OP___ jtwc_sh SH071957 -10.6000 133.400 -1 -10.6000 133.400 TC -10.5061 133.370 1 33 173
1956351S10133 1957 118 SI WA NOT_NAMED 1956-12-16 15:00:00 TS -12.1776 133.587 main 0 0 P________PP___ SH071957 -12.3277 133.589 -1 -12.3277 133.589 TC -11.9775 133.583 1 30 172
1956351S10133 1957 118 SI WA NOT_NAMED 1956-12-16 18:00:00 TS -13.5304 133.802 main 0 0 O________OP___ jtwc_sh SH071957 -13.7000 133.800 -1 -13.7000 133.800 TC -13.2759 133.804 1 23 169
1956351S10133 1957 118 SI WA NOT_NAMED 1956-12-16 21:00:00 TS -14.3932 134.041 main 0 0 P________PP___ SH071957 -14.4548 134.043 -1 -14.4548 134.043 TC -14.2702 134.037 1 15 161
1956351S10133 1957 118 SI WA NOT_NAMED 1956-12-16 23:00:00 TS -14.6750 134.209 main 0 0 P________PO___ SH071957 -14.6626 134.214 -1 -14.6626 134.214 TC -14.7000 134.200 1 9 145
1956351S10133 1957 118 SI WA NOT_NAMED 1956-12-17 00:00:00 TS -14.7442 134.295 main 0 0 O________OP___ jtwc_sh SH071957 -14.7000 134.300 -1 -14.7000 134.300 TC -14.8325 134.284 1 5 101
1956351S10133 1957 118 SI WA NOT_NAMED 1956-12-17 03:00:00 TS -14.7412 134.548 main 0 0 P________PP___ SH071957 -14.6400 134.550 -1 -14.6400 134.550 TC -14.9437 134.544 1 5 65
1956351S10133 1957 118 SI WA NOT_NAMED 1956-12-17 06:00:00 TS -14.5174 134.801 main 0 0 O________OP___ jtwc_sh SH071957 -14.4000 134.800 -1 -14.4000 134.800 TC -14.7521 134.803 1 6 51
1956351S10133 1957 118 SP EA NOT_NAMED 1956-12-17 09:00:00 TS -14.3399 135.055 main 0 0 P________PP___ SH071957 -14.3000 135.057 -1 -14.3000 135.057 TC -14.4197 135.049 1 6 54
1956351S10133 1957 118 SP EA NOT_NAMED 1956-12-17 11:00:00 TS -14.2243 135.215 main 0 0 P________PO___ SH071957 -14.2364 135.222 -1 -14.2364 135.222 TC -14.2000 135.200 1 6 55
1956351S10133 1957 118 SP EA NOT_NAMED 1956-12-17 12:00:00 TS -14.1771 135.295 main 0 0 O________OP___ jtwc_sh SH071957 -14.2000 135.300 -1 -14.2000 135.300 TC -14.1312 135.284 1 6 54
1956351S10133 1957 118 SP EA NOT_NAMED 1956-12-17 15:00:00 TS -14.0046 135.524 main 0 0 P________PP___ SH071957 -14.0500 135.523 -1 -14.0500 135.523 TC -13.9138 135.528 1 5 51
1956351S10133 1957 118 SP EA NOT_NAMED 1956-12-17 18:00:00 TS -13.8443 135.711 main 0 0 O________OP___ jtwc_sh SH071957 -13.9000 135.700 -1 -13.9000 135.700 TC -13.7330 135.732 1 5 47
1956351S10133 1957 118 SP EA NOT_NAMED 1956-12-17 21:00:00 TS -13.6925 135.867 main 0 0 P________PP___ SH071957 -13.7100 135.867 -1 -13.7100 135.867 TC -13.6577 135.865 1 3 49
1956351S10133 1957 118 SP EA NOT_NAMED 1956-12-17 23:00:00 TS -13.6786 135.908 main 0 0 P________PO___ SH071957 -13.6679 135.912 -1 -13.6679 135.912 TC -13.7000 135.900 1 1 171
1956351S10133 1957 118 SP EA NOT_NAMED 1956-12-18 00:00:00 TS -13.7317 135.889 main 0 0 O________OP___ jtwc_sh SH071957 -13.7000 135.900 -1 -13.7000 135.900 TC -13.7950 135.867 1 8 208
1956351S10133 1957 118 SP EA NOT_NAMED 1956-12-18 03:00:00 TS -14.1209 135.672 main 0 0 P________PP___ SH071957 -14.0751 135.665 -1 -14.0751 135.665 TC -14.2123 135.685 1 11 211
1956351S10133 1957 118 SP EA NOT_NAMED 1956-12-18 05:00:00 TS -14.5089 135.417 997 bom main 0 0 P_____O__PP___ SH071957 -14.4269 135.473 -1 -15.0000 134.500 997 -14.4269 135.473 TC -14.5499 135.534 1 15 215
1956351S10133 1957 118 SP EA NOT_NAMED 1956-12-18 06:00:00 TS -14.7188 135.235 main 0 0 O_____P__OP___ jtwc_sh SH071957 -14.6000 135.400 -1 -15.0481 134.485 -14.6000 135.400 TC -14.7213 135.462 1 11 208
1956351S10133 1957 118 SP EA NOT_NAMED 1956-12-18 09:00:00 TS -15.1389 135.070 main 0 0 P_____P__PP___ SH071957 -15.0973 135.302 -1 -15.1895 134.446 -15.0973 135.302 TC -15.1844 135.309 1 8 198
1956351S10133 1957 118 SP EA NOT_NAMED 1956-12-18 11:00:00 TS -15.3209 135.035 main 0 0 P_____P__PO___ SH071957 -15.3377 135.341 -1 -15.2786 134.431 -15.3377 135.341 TC -15.4000 135.300 1 4 0
1956351S10133 1957 118 SP EA NOT_NAMED 1956-12-18 12:00:00 TS -15.3598 135.060 main 0 0 O_____P__OP___ jtwc_sh SH071957 -15.4000 135.400 -1 -15.3207 134.429 -15.4000 135.400 TC -15.4088 135.362 1 4 92
1956351S10133 1957 118 SP EA NOT_NAMED 1956-12-18 15:00:00 TS -15.3289 135.284 main 0 0 P_____P__PP___ SH071957 -15.2601 135.740 -1 -15.4340 134.448 -15.2601 135.740 TC -15.3045 135.672 1 5 75
1956351S10133 1957 118 SP EA NOT_NAMED 1956-12-18 18:00:00 TS -15.2212 135.594 main 0 0 O_____P__OP___ jtwc_sh SH071957 -15.0000 136.200 -1 -15.5219 134.521 -15.0000 136.200 TC -15.1033 136.106 1 6 76
1956351S10133 1957 118 SP EA NOT_NAMED 1956-12-18 21:00:00 TS -15.1783 135.909 main 10 10 P_____P__PP___ SH071957 -14.9175 136.608 -1 -15.5765 134.663 -14.9175 136.608 TC -14.9330 136.588 1 6 87
1956351S10133 1957 118 SP EA NOT_NAMED 1956-12-18 23:00:00 TS -15.1922 136.125 main 15 15 P_____P__PO___ SH071957 -14.9495 136.872 -1 -15.5907 134.804 -14.9495 136.872 TC -14.9000 136.900 1 6 98
1956351S10133 1957 118 SP EA NOT_NAMED 1956-12-19 00:00:00 TS -15.2242 136.228 main 22 15 O_____P__OP___ jtwc_sh SH071957 -15.0000 137.000 -1 -15.5901 134.890 -15.0000 137.000 TC -14.9541 137.021 1 7 116
1956351S10133 1957 118 SP EA NOT_NAMED 1956-12-19 03:00:00 TS -15.3870 136.541 main 30 24 P_____P__PP___ SH071957 -15.2974 137.357 -1 -15.5548 135.218 -15.2974 137.357 TC -15.2216 137.371 1 7 120
1956351S10133 1957 118 SP EA NOT_NAMED 1956-12-19 05:00:00 TS -15.5243 136.761 997 bom main 35 24 P_____O__PP___ SH071957 -15.5649 137.586 -1 -15.5000 135.500 997 -15.5649 137.586 TC -15.4645 137.599 1 8 123
1956351S10133 1957 118 SP EA NOT_NAMED 1956-12-19 06:00:00 TS -15.5922 136.875 main 30 22 O_____P__OP___ jtwc_sh SH071957 -15.7000 137.700 -1 -15.4626 135.661 -15.7000 137.700 TC -15.5985 137.713 1 8 119
1956351S10133 1957 118 SP EA NOT_NAMED 1956-12-19 09:00:00 TS -15.7662 137.224 main 22 22 P_____P__PP___ SH071957 -16.0498 138.028 -1 -15.3240 136.183 -16.0498 138.028 TC -16.0223 138.060 1 8 117
1956351S10133 1957 118 SP EA NOT_NAMED 1956-12-19 11:00:00 TS -15.8769 137.465 main 24 24 P_____P__PO___ SH071957 -16.2832 138.266 -1 -15.2254 136.515 -16.2832 138.266 TC -16.3000 138.300 1 8 115
1956351S10133 1957 118 SP EA NOT_NAMED 1956-12-19 12:00:00 TS -15.9310 137.593 main 30 22 O_____P__OP___ jtwc_sh SH071957 -16.4000 138.400 -1 -15.1790 136.664 -16.4000 138.400 TC -16.4302 138.439 1 8 114
1956351S10133 1957 118 SP EA NOT_NAMED 1956-12-19 14:00:00 TS -16.0453 137.866 bom main 30 24 P_____O__PP___ SH071957 -16.6390 138.737 -1 -15.1000 136.900 -16.6390 138.737 TC -16.6934 138.725 1 8 114
1956351S10133 1957 118 SP EA NOT_NAMED 1956-12-19 15:00:00 TS -16.1023 137.993 main 33 33 P_____P__PP___ SH071957 -16.7577 138.915 -1 -15.0588 136.952 -16.7577 138.915 TC -16.8231 138.871 1 7 111
1956351S10133 1957 118 SP EA NOT_NAMED 1956-12-19 18:00:00 TS -16.2133 138.317 main 54 44 O_____P__OP___ jtwc_sh SH071957 -17.1000 139.400 -1 -14.9608 136.987 -17.1000 139.400 TC -17.1850 139.299 1 6 117
1956351S10133 1957 118 SP EA NOT_NAMED 1956-12-19 21:00:00 TS -16.3749 138.553 main 44 35 P_____P__PP___ SH071957 -17.4598 139.703 -1 -14.9422 136.966 -17.4598 139.703 TC -17.4719 139.685 1 5 126
1956351S10133 1957 118 SP EA NOT_NAMED 1956-12-19 23:00:00 TS -16.4757 138.688 997 bom main 35 35 P_____O__PO___ SH071957 -17.6425 139.841 -1 -15.0000 137.000 997 -17.6425 139.841 TC -17.6000 139.900 1 5 125
1956351S10133 1957 118 SP EA NOT_NAMED 1956-12-20 00:00:00 TS -16.5078 138.753 main 39 30 O_____P__OP___ jtwc_sh SH071957 -17.7000 139.900 -1 -15.0537 137.058 996 -17.7000 139.900 TC -17.6273 139.984 1 5 124
1956351S10133 1957 118 SP EA NOT_NAMED 1956-12-20 03:00:00 TS -16.6536 138.967 main 22 22 P_____P__PP___ SH071957 -17.7099 140.065 -1 -15.2975 137.298 996 -17.7099 140.065 TC -17.6241 140.180 1 5 123
1956351S10133 1957 118 SP EA NOT_NAMED 1956-12-20 05:00:00 TS -16.7268 139.106 996 bom main 24 22 P_____O__PP___ SH071957 -17.6407 140.155 -1 -15.5000 137.500 996 -17.6407 140.155 TC -17.5744 140.276 1 9 109
1956351S10133 1957 118 SP EA NOT_NAMED 1956-12-20 06:00:00 TS -16.7990 139.400 main 30 30 O_____P__OP___ jtwc_sh SH071957 -17.6000 140.200 -1 -15.6111 137.599 -17.6000 140.200 TC -17.5422 140.317 1 10 107
1956351S10133 1957 118 SP EA NOT_NAMED 1956-12-20 09:00:00 TS -16.9281 139.801 main 64 61 P_____P__PP___ SH071957 -17.4850 140.350 -1 -15.9941 137.933 -17.4850 140.350 TC -17.4439 140.427 1 8 108
1956351S10133 1957 118 SP EA NOT_NAMED 1956-12-20 11:00:00 TS -17.0190 140.101 main 74 64 P_____P__PO___ SH071957 -17.4188 140.450 -1 -16.2731 138.182 -17.4188 140.450 TC -17.4000 140.500 2 10 107
1956351S10133 1957 118 SP EA NOT_NAMED 1956-12-20 12:00:00 TS -17.0722 140.301 main 64 46 O_____P__OP___ jtwc_sh SH071957 -17.4000 140.500 -1 -16.4144 138.314 -17.4000 140.500 TC -17.3908 140.533 2 7 114
1956351S10133 1957 118 SP EA NOT_NAMED 1956-12-20 15:00:00 TS -17.2043 140.534 main 46 23 P_____P__PP___ SH071957 -17.4125 140.643 -1 -16.8239 138.736 -17.4125 140.643 TC -17.3838 140.625 2 5 122
1956351S10133 1957 118 SP EA NOT_NAMED 1956-12-20 18:00:00 TS -17.3434 140.760 main 15 0 O_____P__OP___ jtwc_sh SH071957 -17.5000 140.800 -1 -17.1750 139.192 -17.5000 140.800 TC -17.4295 140.740 2 5 122
1956351S10133 1957 118 SP EA NOT_NAMED 1956-12-20 21:00:00 TS -17.4642 140.968 main 0 0 P_____P__PP___ SH071957 -17.5899 140.963 -1 -17.4196 139.671 -17.5899 140.963 TC -17.5564 140.921 2 5 122
1956351S10133 1957 118 SP EA NOT_NAMED 1956-12-20 23:00:00 TS -17.5638 141.130 992 bom main 0 0 P_____O__PO___ SH071957 -17.7104 141.108 -1 -17.5000 140.000 992 -17.7104 141.108 TC -17.7000 141.100 1 6 123
1956351S10133 1957 118 SP EA NOT_NAMED 1956-12-21 00:00:00 TS -17.6266 141.227 main 0 0 O_____P__OP___ jtwc_sh SH071957 -17.8000 141.200 -1 -17.5003 140.165 990 -17.8000 141.200 TC -17.8082 141.208 1 8 126
1956351S10133 1957 118 SP EA NOT_NAMED 1956-12-21 02:00:00 TS -17.7868 141.445 988 bom main 0 0 P_____O__PP___ SH071957 -18.0579 141.408 -1 -17.5000 140.500 988 -18.0579 141.408 TC -18.0688 141.461 1 9 128
1956351S10133 1957 118 SP EA NOT_NAMED 1956-12-21 03:00:00 TS -17.8923 141.581 main 0 0 P_____P__PP___ SH071957 -18.2123 141.533 -1 -17.5853 140.759 986 -18.2123 141.533 TC -18.2155 141.605 1 10 129
1956351S10133 1957 118 SP EA NOT_NAMED 1956-12-21 05:00:00 TS -18.0928 141.844 982 bom main 0 0 P_____O__PP___ SH071957 -18.5398 141.828 -1 -17.6000 141.000 982 4 -18.5398 141.828 TC -18.5270 141.925 1 9 128
1956351S10133 1957 118 SP EA NOT_NAMED 1956-12-21 06:00:00 TS -18.1620 141.939 982 bom main 0 0 O_____O__OP___ jtwc_sh SH071957 -18.7000 142.000 -1 -17.4000 140.800 982 -18.7000 142.000 TC -18.6861 142.100 1 9 128
1956351S10133 1957 118 SP EA NOT_NAMED 1956-12-21 06:30:00 TS -18.2312 142.031 982 bom main 0 0 P_____O__PP___ SH071957 -18.7750 142.090 -1 -17.7000 141.200 982 -18.7750 142.090 TC -18.7652 142.191 1 12 128
1956351S10133 1957 118 SP EA NOT_NAMED 1956-12-21 08:00:00 TS -18.4065 142.275 986 bom main 0 0 P_____O__PP___ SH071957 -18.9963 142.388 -1 -18.0000 141.300 986 -18.9963 142.388 TC -18.9966 142.477 1 12 124
1956351S10133 1957 118 SP EA NOT_NAMED 1956-12-21 09:00:00 TS -18.5208 142.482 main 0 0 P_____P__PP___ SH071957 -19.1375 142.605 -1 -18.1811 141.588 987 -19.1375 142.605 TC -19.1423 142.678 1 15 117
1956351S10133 1957 118 SP EA NOT_NAMED 1956-12-21 11:00:00 TS -18.7385 142.969 990 bom main 0 0 P_____O__PO___ SH071957 -19.3921 143.064 -1 -18.5000 142.500 990 -19.3921 143.064 TC -19.4000 143.100 1 15 112
1956351S10133 1957 118 SP EA NOT_NAMED 1956-12-21 12:00:00 TS -18.7969 143.218 main 0 0 O_____P__OP___ jtwc_sh SH071957 -19.5000 143.300 -1 -18.6463 142.954 990 -19.5000 143.300 TC -19.5070 143.321 1 15 107
1956351S10133 1957 118 SP EA NOT_NAMED 1956-12-21 15:00:00 TS -19.0382 143.975 main 0 0 P_____P__PP___ SH071957 -19.7747 143.985 -1 -19.0527 144.089 992 -19.7379 144.003 TC -19.7451 144.014 1 16 109
1956351S10133 1957 118 SP EA NOT_NAMED 1956-12-21 18:00:00 TS -19.3197 144.791 main 0 0 O_____P__OP___ jtwc_sh SH071957 -19.9000 144.700 -1 -19.4235 144.961 995 -19.9000 144.700 TC -19.8860 144.743 1 16 109
1956351S10133 1957 118 SP EA NOT_NAMED 1956-12-21 20:00:00 TS -19.4779 145.332 main 0 0 P_____P___P___ SH071957 -19.8591 145.215 -1 -19.6580 145.445 996 TC -19.9432 145.242 1 16 108
1956351S10133 1957 118 SP EA NOT_NAMED 1956-12-21 21:00:00 TS -19.5606 145.596 main 0 0 P_____P___P___ SH071957 -19.8151 145.473 -1 -19.7729 145.669 997 TC -19.9647 145.494 1 14 107
1956351S10133 1957 118 SP EA NOT_NAMED 1956-12-21 23:00:00 TS -19.6734 146.023 999 bom main 0 0 P_____O___O___ SH071957 -19.7263 145.971 -1 -20.0000 146.100 999 TC -20.0000 146.000 1 12 102
1956351S10133 1957 118 SP EA NOT_NAMED 1956-12-22 00:00:00 TS -19.6824 146.211 main 0 0 O_____________ jtwc_sh SH081957 -19.7000 146.200 -1 1 11 102
1956351S10133 1957 118 SP EA NOT_NAMED 1956-12-22 03:00:00 TS -19.8259 146.785 main 0 0 P_____________ SH081957 -19.7847 146.802 -1 1 11 103
1956351S10133 1957 118 SP EA NOT_NAMED 1956-12-22 05:00:00 TS -19.8822 147.137 main 0 0 P_____________ SH081957 -19.8675 147.144 -1 1 10 99
1956351S10133 1957 118 SP EA NOT_NAMED 1956-12-22 06:00:00 TS -19.9000 147.300 main 0 0 O_____________ jtwc_sh SH081957 -19.9000 147.300 -1 1 8 94
1956351S10133 1957 118 SP EA NOT_NAMED 1956-12-22 09:00:00 TS -19.9240 147.733 main 0 0 P_____________ SH081957 -19.9223 147.730 -1 1 8 91
1956351S10133 1957 118 SP EA NOT_NAMED 1956-12-22 11:00:00 TS -19.9120 147.986 main 10 10 P_____________ SH081957 -19.9109 147.980 -1 7 86
1956351S10133 1957 118 SP EA NOT_NAMED 1956-12-22 12:00:00 TS -19.9005 148.106 main 11 11 O_____________ jtwc_sh SH081957 -19.9000 148.100 -1 7 83
1956351S10133 1957 118 SP EA NOT_NAMED 1956-12-22 15:00:00 TS -19.8548 148.460 main 23 23 P_____________ SH081957 -19.8574 148.458 -1 7 81
1956351S10133 1957 118 SP EA NOT_NAMED 1956-12-22 17:00:00 TS -19.8177 148.687 main 45 45 P_____________ SH081957 -19.8192 148.686 -1 6 80
1956351S10133 1957 118 SP EA NOT_NAMED 1956-12-22 18:00:00 TS -19.8000 148.800 main 49 49 O_____________ jtwc_sh SH081957 -19.8000 148.800 -1 6 77
1956351S10133 1957 118 SP EA NOT_NAMED 1956-12-22 21:00:00 TS -19.7263 149.118 main 74 74 P_____________ SH081957 -19.7349 149.150 -1 6 77
1956351S10133 1957 118 SP EA NOT_NAMED 1956-12-22 23:00:00 TS -19.6888 149.330 main 85 85 P_____________ SH081957 -19.7052 149.383 -1 6 81
1956351S10133 1957 118 SP EA NOT_NAMED 1956-12-23 00:00:00 TS -19.6795 149.439 main 91 91 O_____________ jtwc_sh SH081957 -19.7000 149.500 -1 6 87
1956351S10133 1957 118 SP EA NOT_NAMED 1956-12-23 03:00:00 TS -19.6707 149.736 main 115 115 P_____________ SH081957 -19.6817 149.768 -1 7 96
1956351S10133 1957 118 SP EA NOT_NAMED 1956-12-23 05:00:00 TS -19.7352 150.014 main 142 142 P_____________ SH081957 -19.7376 150.021 -1 9 106
1956351S10133 1957 118 SP EA NOT_NAMED 1956-12-23 06:00:00 TS -19.8000 150.200 main 156 156 O_____________ jtwc_sh SH081957 -19.8000 150.200 -1 15 113
1956351S10133 1957 118 SP EA NOT_NAMED 1956-12-23 09:00:00 TS -20.1385 151.008 main 218 218 P_____________ SH081957 -20.1176 150.988 -1 18 115
1956351S10133 1957 118 SP EA NOT_NAMED 1956-12-23 11:00:00 TS -20.4543 151.672 main 236 236 P_____________ SH081957 -20.4254 151.649 -1 21 117
1956351S10133 1957 118 SP EA NOT_NAMED 1956-12-23 12:00:00 TS -20.6310 152.024 main 242 235 O_____________ jtwc_sh SH081957 -20.6000 152.000 -1 27 130
1956351S10133 1957 118 SP EA NOT_NAMED 1956-12-23 15:00:00 TS -21.5938 153.141 main 257 257 P_____________ SH081957 -21.2082 153.121 -1 25 131
1956351S10133 1957 118 SP EA NOT_NAMED 1956-12-23 17:00:00 TS -22.0022 153.695 main 303 302 P_____________ SH081957 -21.6184 153.862 -1 18 129
1956351S10133 1957 118 SP EA NOT_NAMED 1956-12-23 18:00:00 TS -22.1575 153.895 main 296 296 O_____________ jtwc_sh SH081957 -21.8000 154.200 -1 12 107
1956351S10133 1957 118 SP EA NOT_NAMED 1956-12-23 21:00:00 TS -22.2241 154.488 main 315 315 P_____________ SH081957 -22.1788 155.004 -1 12 98
1956351S10133 1957 118 SP EA NOT_NAMED 1956-12-23 23:00:00 TS -22.2946 154.956 main 328 328 P_____________ SH081957 -22.3902 155.469 -1 14 103
1956351S10133 1957 118 SP EA NOT_NAMED 1956-12-24 00:00:00 TS -22.3760 155.211 main 330 330 O_____________ jtwc_sh SH081957 -22.5000 155.700 -1 17 117
1956351S10133 1957 118 SP EA NOT_NAMED 1956-12-24 03:00:00 TS -22.8197 156.072 main 361 361 P_____________ SH081957 -22.8848 156.458 -1 20 121
1956351S10133 1957 118 SP EA NOT_NAMED 1956-12-24 06:00:00 TS -23.3950 157.049 main 406 406 O_____________ jtwc_sh SH081957 -23.3000 157.200 -1 22 121
1956351S10133 1957 118 SP EA NOT_NAMED 1956-12-24 09:00:00 TS -23.9579 158.102 main 488 488 P_____________ SH081957 -23.7496 157.908 -1 22 119
1956351S10133 1957 118 SP EA NOT_NAMED 1956-12-24 11:00:00 TS -24.3047 158.838 main 550 550 P_____________ SH081957 -24.0529 158.369 -1 22 116
1956351S10133 1957 118 SP EA NOT_NAMED 1956-12-24 12:00:00 TS -24.4367 159.157 main 589 587 O_____________ jtwc_sh SH081957 -24.2000 158.600 -1 19 113
1956351S10133 1957 118 SP MM NOT_NAMED 1956-12-24 15:00:00 TS -24.8010 160.140 main 620 580 P_____________ SH081957 -24.6299 159.315 -1 17 112
1956351S10133 1957 118 SP MM NOT_NAMED 1956-12-24 18:00:00 TS -25.0711 160.868 main 581 574 O_____________ jtwc_sh SH081957 -25.0000 160.000 -1 11 117
1956351S10133 1957 118 SP MM NOT_NAMED 1956-12-24 21:00:00 TS -25.2792 161.186 main 576 569 P_____________ SH081957 -25.2721 160.623 -1 7 128
1956351S10133 1957 118 SP MM NOT_NAMED 1956-12-24 23:00:00 TS -25.4186 161.361 main 572 572 P_____________ SH081957 -25.4244 161.011 -1 5 0
1956351S10133 1957 118 SP MM NOT_NAMED 1956-12-25 00:00:00 TS -25.5041 161.187 main 593 580 O_____________ jtwc_sh SH081957 -25.5000 161.200 -1 7 134
1956351S10133 1957 118 SP MM NOT_NAMED 1956-12-25 03:00:00 TS -25.7365 161.730 main 580 573 P_____________ SH081957 -25.7344 161.736 -1 11 116
1956351S10133 1957 118 SP MM NOT_NAMED 1956-12-25 06:00:00 TS -26.0000 162.300 main 578 564 O_____________ jtwc_sh SH081957 -26.0000 162.300 -1 13 117
1956351S10133 1957 118 SP MM NOT_NAMED 1956-12-25 09:00:00 TS -26.3279 162.997 main 564 557 P_____________ SH081957 -26.3276 162.985 -1 15 119
1956351S10133 1957 118 SP MM NOT_NAMED 1956-12-25 12:00:00 TS -26.6975 163.720 main 562 557 O_____________ jtwc_sh SH081957 -26.7000 163.700 -1 15 121
1956351S10133 1957 118 SP MM NOT_NAMED 1956-12-25 15:00:00 TS -27.0851 164.416 main 573 569 P_____________ SH081957 -27.0851 164.402 -1 14 125
1956351S10133 1957 118 SP MM NOT_NAMED 1956-12-25 18:00:00 TS -27.5000 165.000 main 594 592 O_____________ jtwc_sh SH081957 -27.5000 165.000 -1 12 134
1956351S10133 1957 118 SP MM NOT_NAMED 1956-12-25 21:00:00 TS -27.9391 165.419 main 628 628 P_____________ SH081957 -27.9422 165.440 -1 11 147
1956351S10133 1957 118 SP MM NOT_NAMED 1956-12-26 00:00:00 TS -28.3934 165.667 main 677 677 O_____________ jtwc_sh SH081957 -28.4000 165.700 -1 10 161
1956351S10133 1957 118 SP MM NOT_NAMED 1956-12-26 03:00:00 TS -28.8476 165.772 main 720 720 P_____________ SH081957 -28.8526 165.795 -1 9 173
1956351S10133 1957 118 SP MM NOT_NAMED 1956-12-26 06:00:00 TS -29.3000 165.800 main 776 O_____________ jtwc_sh SH081957 -29.3000 165.800 -1 9 177

About IBTrACS Database

This database is a web-friendly format of International Best Track Archive for Climate Stewardship (IBTrACS), a global best track data archive curated by NOAA dating back to 1842.

Updated: 2021-10-21